Khon Kaen Airport
VTUK : now visible

Airfield :











YOU CAN JOIN US ON...

 
LOGIN :

Register | Disclaimer

   EN    FR    IT 

 









Legend :    VFR   Marginal VFR   IFR   Intensive IFR   Very Intensive IFR
Visi :
Ceiling :
>= 8 km
>= 3000ft
5 to 8 km
1000 to 3000 ft
1500m to 5 km
500 to 1000 ft
800 to 1500m
200 to 500 ft
< 800m
< 200 ft
Symbols :   Thunderstorms  Fog  Heavy snow  Heavy precipitations  Wind > 20 kt







- Airport Elevation : 670 ft
- IATA code : KKC


VTUK - Khon Kaen

CURRENT METAR :
  • 240600Z 21004KT 140V270 9000 BKN022 BKN100 32/24 Q1009 NOSIG

EXPIRED METARs :
  • 240500Z VRB02KT 9000 FEW012 BKN020 BKN100 32/25 Q1010 NOSIG
  • 240400Z VRB02KT 8000 SCT012 BKN020 BKN100 30/25 Q1011 NOSIG

TAF TAF VTUK
Valid from the 24 at 06:00 until the 25 at 06:00 UTC


240500Z 2406/2506 17005KT 8000 BKN025
TEMPO 2410/2417 5000 TSRA FEW018CB
BECMG 2421/2423 5000 BR
BECMG 2500/2502 9000 NSW
VTBB FIR / Asia



MET'MAP, your aeronautical weather chart ! - Copyright ORBIFLY December 2007 - Disclaimer

ORBIFLY MET'MAP TEAM :

Programming & Development : Alexandra Zaïnal
Concept & Development : Baudouin d'Aumeries
Co-Development & Prog : Marc-Olivier Méhu
Technical & hardware support : Manuel Goepfert

Contact : metmap@orbifly.com




SOURCES & CREDITS :

   NOAA       Earth
Advisory